createdAt,value
2018-11-07T00:01:34.497Z,12.40
2018-11-07T00:07:39.525Z,12.20
2018-11-07T00:13:43.379Z,12.40
2018-11-07T00:19:46.839Z,12.00
2018-11-07T00:25:50.937Z,11.90
2018-11-07T00:31:54.431Z,11.90
2018-11-07T00:37:57.937Z,11.90
2018-11-07T00:44:01.515Z,11.90
2018-11-07T00:50:07.909Z,11.90
2018-11-07T00:56:11.817Z,11.80
2018-11-07T01:02:15.346Z,11.70
2018-11-07T01:08:19.183Z,11.50
2018-11-07T01:14:22.820Z,11.40
2018-11-07T01:20:27.367Z,11.20
2018-11-07T01:26:30.846Z,11.20
2018-11-07T01:32:34.508Z,11.10
2018-11-07T01:38:38.031Z,11.00
2018-11-07T01:44:41.533Z,10.90
2018-11-07T01:50:45.108Z,10.90
2018-11-07T01:56:48.670Z,10.80
2018-11-07T02:02:52.318Z,10.70
2018-11-07T02:08:56.064Z,10.60
2018-11-07T02:14:59.538Z,10.50
2018-11-07T02:21:03.308Z,10.50
2018-11-07T02:27:06.780Z,10.40
2018-11-07T02:33:11.248Z,10.40
2018-11-07T02:39:15.915Z,10.50
2018-11-07T02:45:25.917Z,10.30
2018-11-07T02:51:29.507Z,10.30
2018-11-07T02:57:32.988Z,10.40
2018-11-07T03:03:36.486Z,10.20
2018-11-07T03:09:40.575Z,10.20
2018-11-07T03:15:44.145Z,10.40
2018-11-07T03:21:47.619Z,10.40
2018-11-07T03:27:51.160Z,10.30
2018-11-07T03:33:55.294Z,10.30
2018-11-07T03:39:59.959Z,10.10
2018-11-07T03:46:03.429Z,10.10
2018-11-07T03:52:07.037Z,10.10
2018-11-07T03:58:10.746Z,10.20
2018-11-07T04:04:14.257Z,10.30
2018-11-07T04:10:17.681Z,10.30
2018-11-07T04:16:21.121Z,10.20
2018-11-07T04:22:25.260Z,10.30
2018-11-07T04:28:28.713Z,10.30
2018-11-07T04:34:32.189Z,10.40
2018-11-07T04:40:35.709Z,10.60
2018-11-07T04:46:39.896Z,10.30
2018-11-07T04:52:44.442Z,10.40
2018-11-07T04:58:48.936Z,10.60
2018-11-07T05:04:52.482Z,10.30
2018-11-07T05:10:55.977Z,10.30
2018-11-07T05:16:59.580Z,10.30
2018-11-07T05:23:03.587Z,10.30
2018-11-07T05:29:07.020Z,10.40
2018-11-07T05:35:10.780Z,10.70
2018-11-07T05:41:14.387Z,10.60
2018-11-07T05:47:17.826Z,11.40
2018-11-07T05:53:21.373Z,11.60
2018-11-07T05:59:25.016Z,11.30
2018-11-07T06:05:28.589Z,10.80
2018-11-07T06:11:32.244Z,11.30
2018-11-07T06:17:35.790Z,11.20
2018-11-07T06:23:39.363Z,11.10
2018-11-07T06:29:42.890Z,11.70
2018-11-07T06:35:46.469Z,11.60
2018-11-07T06:41:49.917Z,13.00
2018-11-07T06:47:53.683Z,12.40
2018-11-07T06:53:57.301Z,13.30
2018-11-07T07:00:01.654Z,14.60
2018-11-07T07:06:05.239Z,14.90
2018-11-07T07:12:09.951Z,15.80
2018-11-07T07:18:13.472Z,15.40
2018-11-07T07:24:17.657Z,15.00
2018-11-07T07:30:22.015Z,16.00
2018-11-07T07:36:25.670Z,15.60
2018-11-07T07:42:29.281Z,16.30
2018-11-07T07:48:33.636Z,15.70
2018-11-07T07:54:37.341Z,16.30
2018-11-07T08:00:40.833Z,15.80
2018-11-07T08:06:46.001Z,16.10
2018-11-07T08:12:49.821Z,16.10
2018-11-07T08:18:53.354Z,16.40
2018-11-07T08:24:56.849Z,15.40
2018-11-07T08:31:00.806Z,15.60
2018-11-07T08:37:04.373Z,15.60
2018-11-07T08:43:08.139Z,15.20
2018-11-07T08:49:11.569Z,15.80
2018-11-07T08:55:18.905Z,15.70
2018-11-07T09:01:22.632Z,15.70
2018-11-07T09:07:26.137Z,15.50
2018-11-07T09:13:29.732Z,15.90
2018-11-07T09:19:33.242Z,15.40
2018-11-07T09:25:36.781Z,15.80
2018-11-07T09:31:40.234Z,15.70
2018-11-07T09:37:43.708Z,16.30
2018-11-07T09:43:47.346Z,15.70
2018-11-07T09:49:50.933Z,14.80
2018-11-07T09:55:54.629Z,14.70
2018-11-07T10:01:58.458Z,15.60
2018-11-07T10:08:03.320Z,15.20
2018-11-07T10:14:08.716Z,15.80
2018-11-07T10:20:14.340Z,15.00
2018-11-07T10:26:17.932Z,15.50
2018-11-07T10:32:22.222Z,14.90
2018-11-07T10:38:25.775Z,14.50
2018-11-07T10:44:29.401Z,14.20
2018-11-07T10:50:34.437Z,14.40
2018-11-07T10:56:38.215Z,14.40
2018-11-07T11:02:46.458Z,14.20
2018-11-07T11:08:49.887Z,14.50
2018-11-07T11:14:53.721Z,13.90
2018-11-07T11:20:58.097Z,13.90
2018-11-07T11:27:01.668Z,13.90
2018-11-07T11:33:05.682Z,14.80
2018-11-07T11:39:10.869Z,14.60
2018-11-07T11:45:16.550Z,14.90
2018-11-07T11:51:20.069Z,15.80
2018-11-07T11:57:23.765Z,16.10
2018-11-07T12:03:27.221Z,15.70
2018-11-07T12:09:30.761Z,15.60
2018-11-07T12:15:34.350Z,15.90
2018-11-07T12:21:37.871Z,15.90
2018-11-07T12:27:42.708Z,15.70
2018-11-07T12:33:46.280Z,15.90
2018-11-07T12:39:49.712Z,15.30
2018-11-07T12:45:53.666Z,15.70
2018-11-07T12:51:57.320Z,15.30
2018-11-07T12:58:00.947Z,15.20
2018-11-07T13:04:04.589Z,15.70
2018-11-07T13:10:11.640Z,14.90
2018-11-07T13:16:15.163Z,14.70
2018-11-07T13:22:18.884Z,14.70
2018-11-07T13:28:22.300Z,14.60
2018-11-07T13:34:25.779Z,15.30
2018-11-07T13:40:29.394Z,15.60
2018-11-07T13:46:32.874Z,15.00
2018-11-07T13:52:36.489Z,14.70
2018-11-07T13:58:40.006Z,15.30
2018-11-07T14:04:43.482Z,15.90
2018-11-07T14:10:46.944Z,15.20
2018-11-07T14:16:50.394Z,15.50
2018-11-07T14:22:54.164Z,14.80
2018-11-07T14:28:57.778Z,15.80
2018-11-07T14:35:01.292Z,16.00
2018-11-07T14:41:04.856Z,16.30
2018-11-07T14:47:08.742Z,16.30
2018-11-07T14:53:12.219Z,16.30
2018-11-07T14:59:15.712Z,15.70
2018-11-07T15:05:19.590Z,15.50
2018-11-07T15:11:23.156Z,15.50
2018-11-07T15:17:26.904Z,15.20
2018-11-07T15:23:30.463Z,15.60
2018-11-07T15:29:33.881Z,16.00
2018-11-07T15:35:37.398Z,16.20
2018-11-07T15:41:41.581Z,16.30
2018-11-07T15:47:45.189Z,16.20
2018-11-07T15:53:48.632Z,16.20
2018-11-07T15:59:52.209Z,15.80
2018-11-07T16:05:55.923Z,16.20
2018-11-07T16:11:59.435Z,16.80
2018-11-07T16:18:04.015Z,16.70
2018-11-07T16:24:08.064Z,16.40
2018-11-07T16:30:15.039Z,16.80
2018-11-07T16:36:18.505Z,17.20
2018-11-07T16:42:22.827Z,17.00
2018-11-07T16:48:26.323Z,17.40
2018-11-07T16:54:29.820Z,17.40
2018-11-07T17:00:33.338Z,17.40
2018-11-07T17:06:36.866Z,17.40
2018-11-07T17:12:40.318Z,17.40
2018-11-07T17:18:43.808Z,17.50
2018-11-07T17:24:48.057Z,17.40
2018-11-07T17:30:51.587Z,17.20
2018-11-07T17:36:55.240Z,15.90
2018-11-07T17:42:58.819Z,16.00
2018-11-07T17:49:02.391Z,15.70
2018-11-07T17:55:06.653Z,15.50
2018-11-07T18:01:11.105Z,15.80
2018-11-07T18:07:14.611Z,15.70
2018-11-07T18:13:18.760Z,15.50
2018-11-07T18:19:22.229Z,15.40
2018-11-07T18:25:25.707Z,15.10
2018-11-07T18:31:29.345Z,15.00
2018-11-07T18:37:32.914Z,14.90
2018-11-07T18:43:36.345Z,14.90
2018-11-07T18:49:39.830Z,14.40
2018-11-07T18:55:43.342Z,13.80
2018-11-07T19:01:46.878Z,13.90
2018-11-07T19:07:50.424Z,13.20
2018-11-07T19:13:54.033Z,13.20
2018-11-07T19:19:57.645Z,12.90
2018-11-07T19:26:01.141Z,12.90
2018-11-07T19:32:05.438Z,14.00
2018-11-07T19:38:08.932Z,14.20
2018-11-07T19:44:12.388Z,13.80
2018-11-07T19:50:17.295Z,13.90
2018-11-07T19:56:20.900Z,14.20
2018-11-07T20:02:24.452Z,14.00
2018-11-07T20:08:28.888Z,13.60
2018-11-07T20:14:32.476Z,13.50
2018-11-07T20:20:35.929Z,13.20
2018-11-07T20:26:39.412Z,13.40
2018-11-07T20:32:43.058Z,13.70
2018-11-07T20:38:47.080Z,13.60
2018-11-07T20:44:50.539Z,13.10
2018-11-07T20:50:54.005Z,13.20
2018-11-07T20:56:57.515Z,13.00
2018-11-07T21:03:00.970Z,13.40
2018-11-07T21:09:06.445Z,13.80
2018-11-07T21:15:10.995Z,13.70
2018-11-07T21:21:14.449Z,14.30
2018-11-07T21:27:17.962Z,14.30
2018-11-07T21:33:21.415Z,14.60
2018-11-07T21:39:24.923Z,14.70
2018-11-07T21:45:28.375Z,14.10
2018-11-07T21:51:31.826Z,14.20
2018-11-07T21:57:35.635Z,13.80
2018-11-07T22:03:39.471Z,14.40
2018-11-07T22:09:42.923Z,14.80
2018-11-07T22:15:47.104Z,15.10
2018-11-07T22:21:50.757Z,14.90
2018-11-07T22:27:54.357Z,14.60
2018-11-07T22:33:58.003Z,15.40
2018-11-07T22:40:01.431Z,15.30
2018-11-07T22:46:05.114Z,15.40
2018-11-07T22:52:08.911Z,15.10
2018-11-07T23:21:48.742Z,13.90
2018-11-07T23:27:52.193Z,13.40
2018-11-07T23:33:55.701Z,13.50
2018-11-07T23:39:59.147Z,13.00
2018-11-07T23:46:02.744Z,12.80
2018-11-07T23:52:17.296Z,13.00
2018-11-07T23:58:20.782Z,12.60
